Portada
METAR-TAF:

METAR-TAF

Aeropuertos :

Ankara Etimesgut, Turquía

latitud: 39-57N, longitud: 032-41E, altitud: 799 m

METAR: falta

Hora: 16:04 (13:04 UTC)

Pronóstico

El informe se hizo hace 2 horas y 24 minutos, a las 10:40 UTC
Pronóstico válido del 06 a las 12 UTC al 06 a las 21 UTC
Viento 2 kt con dirección variable
Visibilidad 10 km o más
sin nubes por debajo de 1500 m y sin presencia de cumulonimbus.

TAF: LTAD 061040Z 0612/0621 VRB02KT CAVOK

Observaciones y pronósticos meteorológicos de más de 4000 aeropuertos (mensajes METAR y TAF).

Los puntos amarillos y rojos representan las estaciones disponibles.

Ponga el ratón en el punto deseado para ver el nombre de la estación.

Haga clic para ver las observaciones y los pronósticos meteorológicos.

Para cambiar el mapa : haga clic en los botones verdes con una cruz de color negro para hacer un zoom, en el botón verde con un guión para alejar o en las flechas verdes para mapas adyacentes.


METAR-TAF: